createdAt,value
2019-06-26T00:01:45.735Z,18.93
2019-06-26T00:04:15.836Z,20.10
2019-06-26T00:06:45.569Z,18.73
2019-06-26T00:09:15.394Z,20.13
2019-06-26T00:11:45.153Z,18.83
2019-06-26T00:14:14.928Z,16.67
2019-06-26T00:16:44.947Z,17.97
2019-06-26T00:19:16.133Z,17.63
2019-06-26T00:21:45.914Z,17.00
2019-06-26T00:24:15.805Z,17.60
2019-06-26T00:26:45.783Z,17.57
2019-06-26T00:29:15.625Z,17.27
2019-06-26T00:31:45.467Z,18.10
2019-06-26T00:34:15.333Z,17.83
2019-06-26T00:36:45.072Z,17.40
2019-06-26T00:39:14.951Z,17.60
2019-06-26T00:41:44.828Z,16.67
2019-06-26T00:44:14.747Z,18.30
2019-06-26T00:46:44.861Z,16.20
2019-06-26T00:49:14.659Z,17.80
2019-06-26T00:51:44.592Z,18.53
2019-06-26T00:54:14.551Z,18.07
2019-06-26T00:56:44.436Z,17.63
2019-06-26T00:59:15.149Z,17.60
2019-06-26T01:01:45.001Z,17.77
2019-06-26T01:04:19.009Z,17.37
2019-06-26T01:06:48.732Z,19.33
2019-06-26T01:09:18.599Z,18.73
2019-06-26T01:11:48.524Z,19.10
2019-06-26T01:14:18.480Z,17.97
2019-06-26T01:16:48.347Z,19.13
2019-06-26T01:19:18.270Z,19.13
2019-06-26T01:21:47.995Z,18.70
2019-06-26T01:24:17.800Z,18.80
2019-06-26T01:26:47.681Z,19.57
2019-06-26T01:29:17.552Z,20.17
2019-06-26T01:31:47.458Z,20.30
2019-06-26T01:34:17.679Z,19.47
2019-06-26T01:36:47.381Z,19.00
2019-06-26T01:39:17.311Z,18.40
2019-06-26T01:41:47.168Z,20.07
2019-06-26T01:44:17.129Z,19.70
2019-06-26T01:46:47.054Z,20.87
2019-06-26T01:49:17.198Z,20.73
2019-06-26T01:51:46.999Z,20.17
2019-06-26T01:54:17.072Z,19.40
2019-06-26T01:56:46.837Z,21.47
2019-06-26T01:59:16.771Z,20.60
2019-06-26T02:01:47.764Z,21.17
2019-06-26T02:04:17.591Z,21.33
2019-06-26T02:06:47.400Z,23.20
2019-06-26T02:09:17.264Z,21.10
2019-06-26T02:11:47.141Z,22.43
2019-06-26T02:14:29.913Z,21.83
2019-06-26T02:16:48.588Z,21.70
2019-06-26T02:19:19.347Z,22.80
2019-06-26T02:21:49.051Z,21.73
2019-06-26T02:24:18.907Z,21.93
2019-06-26T02:26:48.820Z,22.23
2019-06-26T02:29:18.720Z,22.60
2019-06-26T02:31:48.717Z,23.30
2019-06-26T02:34:18.661Z,22.70
2019-06-26T02:36:48.474Z,23.27
2019-06-26T02:39:18.550Z,22.13
2019-06-26T02:41:48.303Z,23.40
2019-06-26T02:44:18.220Z,20.77
2019-06-26T02:46:48.184Z,21.63
2019-06-26T02:49:18.057Z,23.37
2019-06-26T02:51:47.971Z,22.93
2019-06-26T02:54:17.927Z,23.60
2019-06-26T02:56:47.911Z,23.23
2019-06-26T02:59:17.826Z,23.37
2019-06-26T03:01:47.657Z,22.80
2019-06-26T03:04:18.464Z,22.03
2019-06-26T03:06:48.167Z,22.80
2019-06-26T03:09:18.150Z,23.87
2019-06-26T03:11:47.995Z,22.23
2019-06-26T03:14:17.837Z,21.50
2019-06-26T03:16:47.799Z,24.00
2019-06-26T03:19:17.674Z,22.17
2019-06-26T03:21:47.564Z,22.17
2019-06-26T03:24:17.422Z,21.17
2019-06-26T03:26:47.100Z,24.07
2019-06-26T03:29:16.976Z,21.27
2019-06-26T03:31:46.519Z,22.13
2019-06-26T03:34:16.229Z,22.77
2019-06-26T03:36:46.083Z,21.83
2019-06-26T03:39:15.977Z,21.17
2019-06-26T03:41:45.935Z,21.07
2019-06-26T03:44:15.816Z,21.67
2019-06-26T03:46:45.732Z,20.80
2019-06-26T03:49:15.806Z,19.73
2019-06-26T03:51:45.938Z,20.87
2019-06-26T03:54:15.569Z,21.27
2019-06-26T03:56:45.412Z,19.80
2019-06-26T03:59:15.314Z,19.87
2019-06-26T04:01:45.250Z,20.83
2019-06-26T04:04:15.123Z,20.77
2019-06-26T04:06:45.101Z,20.30
2019-06-26T04:09:14.970Z,19.53
2019-06-26T04:11:44.979Z,20.67
2019-06-26T04:14:14.832Z,21.40
2019-06-26T04:16:45.209Z,19.73
2019-06-26T04:19:14.926Z,20.27
2019-06-26T04:21:44.954Z,19.67
2019-06-26T04:24:14.864Z,18.80
2019-06-26T04:26:44.782Z,17.80
2019-06-26T04:29:14.532Z,18.40
2019-06-26T04:31:44.406Z,17.73
2019-06-26T04:34:14.320Z,17.63
2019-06-26T04:36:44.037Z,17.60
2019-06-26T04:39:13.647Z,18.47
2019-06-26T04:41:43.844Z,18.67
2019-06-26T04:44:13.605Z,18.20
2019-06-26T04:46:43.529Z,17.53
2019-06-26T04:49:13.477Z,17.50
2019-06-26T04:51:43.454Z,18.17
2019-06-26T04:54:13.281Z,18.77
2019-06-26T04:56:44.429Z,18.90
2019-06-26T04:59:14.309Z,18.40
2019-06-26T05:01:43.965Z,17.20
2019-06-26T05:04:13.860Z,18.13
2019-06-26T05:06:43.721Z,17.23
2019-06-26T05:09:13.385Z,17.17
2019-06-26T05:11:43.306Z,18.93
2019-06-26T05:14:13.249Z,18.47
2019-06-26T05:16:43.122Z,19.67
2019-06-26T05:19:12.837Z,18.23
2019-06-26T05:21:42.914Z,18.17
2019-06-26T05:24:12.764Z,17.83
2019-06-26T05:26:42.686Z,17.23
2019-06-26T05:29:12.655Z,17.10
2019-06-26T05:31:42.517Z,16.83
2019-06-26T05:34:12.357Z,16.20
2019-06-26T05:36:42.178Z,17.83
2019-06-26T05:39:12.054Z,15.50
2019-06-26T05:41:41.808Z,17.40
2019-06-26T05:44:11.593Z,19.77
2019-06-26T05:46:41.403Z,15.73
2019-06-26T05:49:12.593Z,16.60
2019-06-26T05:51:42.398Z,17.43
2019-06-26T05:54:12.196Z,18.00
2019-06-26T05:56:45.168Z,16.63
2019-06-26T05:59:13.701Z,16.80
2019-06-26T06:01:44.556Z,16.13
2019-06-26T06:04:14.207Z,18.80
2019-06-26T06:06:45.538Z,16.90
2019-06-26T06:09:15.074Z,17.47
2019-06-26T06:11:44.799Z,16.70
2019-06-26T06:14:14.643Z,15.93
2019-06-26T06:16:47.823Z,14.97
2019-06-26T06:19:16.205Z,15.43
2019-06-26T06:21:45.895Z,16.13
2019-06-26T06:24:15.855Z,14.23
2019-06-26T06:26:45.741Z,12.73
2019-06-26T06:29:15.505Z,13.67
2019-06-26T06:31:45.321Z,11.53
2019-06-26T06:34:15.090Z,15.80
2019-06-26T06:36:44.878Z,14.70
2019-06-26T06:39:14.789Z,12.00
2019-06-26T06:41:44.847Z,11.40
2019-06-26T06:44:14.665Z,11.83
2019-06-26T06:46:44.327Z,13.03
2019-06-26T06:49:14.130Z,12.80
2019-06-26T06:51:43.792Z,12.47
2019-06-26T06:54:13.544Z,10.43
2019-06-26T06:56:43.175Z,11.47
2019-06-26T06:59:13.020Z,12.90
2019-06-26T07:01:42.889Z,11.40
2019-06-26T07:04:12.504Z,14.90
2019-06-26T07:06:42.361Z,12.43
2019-06-26T07:09:12.294Z,14.23
2019-06-26T07:11:42.167Z,11.47
2019-06-26T07:14:11.970Z,11.97
2019-06-26T07:16:41.914Z,13.80
2019-06-26T07:19:11.718Z,10.33
2019-06-26T07:21:41.683Z,11.63
2019-06-26T07:24:11.688Z,11.13
2019-06-26T07:26:41.453Z,15.23
2019-06-26T07:29:11.215Z,11.17
2019-06-26T07:31:41.150Z,10.97
2019-06-26T07:34:11.088Z,14.43
2019-06-26T07:36:40.904Z,9.73
2019-06-26T07:39:10.643Z,11.53
2019-06-26T07:41:40.629Z,9.30
2019-06-26T07:44:10.473Z,9.90
2019-06-26T07:46:40.265Z,11.87
2019-06-26T07:49:10.153Z,10.20
2019-06-26T07:51:39.811Z,10.45
2019-06-26T07:54:09.717Z,11.03
2019-06-26T07:56:39.588Z,10.77
2019-06-26T07:59:09.237Z,13.93
2019-06-26T08:01:39.053Z,10.57
2019-06-26T08:04:10.029Z,9.88
2019-06-26T08:06:39.908Z,10.32
2019-06-26T08:09:09.615Z,8.33
2019-06-26T08:11:39.598Z,9.47
2019-06-26T08:14:09.248Z,8.70
2019-06-26T08:16:40.298Z,7.65
2019-06-26T08:19:10.105Z,11.73
2019-06-26T08:21:39.738Z,7.13
2019-06-26T08:24:09.694Z,7.35
2019-06-26T08:26:39.463Z,9.10
2019-06-26T08:29:09.372Z,8.10
2019-06-26T08:31:39.365Z,11.67
2019-06-26T08:34:09.260Z,7.37
2019-06-26T08:36:39.021Z,12.15
2019-06-26T08:39:08.847Z,10.25
2019-06-26T08:41:38.821Z,10.63
2019-06-26T08:44:08.665Z,12.35
2019-06-26T08:46:38.575Z,10.72
2019-06-26T08:49:24.377Z,11.40
2019-06-26T08:51:41.370Z,9.13
2019-06-26T08:54:11.105Z,10.85
2019-06-26T08:56:40.866Z,13.43
2019-06-26T08:59:10.533Z,9.60
2019-06-26T09:01:40.379Z,11.97
2019-06-26T09:04:10.185Z,12.00
2019-06-26T09:06:40.039Z,8.15
2019-06-26T09:09:09.777Z,11.43
2019-06-26T09:11:39.733Z,9.60
2019-06-26T09:14:09.458Z,10.45
2019-06-26T09:16:39.338Z,10.88
2019-06-26T09:19:09.252Z,11.33
2019-06-26T09:21:40.415Z,13.58
2019-06-26T09:24:10.195Z,8.73
2019-06-26T09:26:39.923Z,8.53
2019-06-26T09:29:09.785Z,8.53
2019-06-26T09:31:39.668Z,10.25
2019-06-26T09:34:09.586Z,11.05
2019-06-26T09:36:39.547Z,8.65
2019-06-26T09:39:09.716Z,12.93
2019-06-26T09:41:39.631Z,11.68
2019-06-26T09:44:09.589Z,9.45
2019-06-26T09:46:39.432Z,9.53
2019-06-26T09:49:09.276Z,13.60
2019-06-26T09:51:39.172Z,6.87
2019-06-26T09:54:09.158Z,8.90
2019-06-26T09:56:40.130Z,7.53
2019-06-26T09:59:11.480Z,10.23
2019-06-26T10:01:41.371Z,7.85
2019-06-26T10:04:11.120Z,8.05
2019-06-26T10:06:41.096Z,11.10
2019-06-26T10:09:10.842Z,14.28
2019-06-26T10:11:40.557Z,12.33
2019-06-26T10:14:10.207Z,8.45
2019-06-26T10:16:40.003Z,9.08
2019-06-26T10:19:11.086Z,11.15
2019-06-26T10:21:40.885Z,10.58
2019-06-26T10:24:10.671Z,9.10
2019-06-26T10:26:40.457Z,8.45
2019-06-26T10:29:11.637Z,7.83
2019-06-26T10:31:41.669Z,8.98
2019-06-26T10:34:11.356Z,8.38
2019-06-26T10:36:41.297Z,8.68
2019-06-26T10:39:11.200Z,10.25
2019-06-26T10:41:41.082Z,9.95
2019-06-26T10:44:10.940Z,9.70
2019-06-26T10:46:41.059Z,9.78
2019-06-26T10:49:25.823Z,9.15
2019-06-26T10:51:42.651Z,8.90
2019-06-26T10:54:12.511Z,8.23
2019-06-26T10:56:42.186Z,9.35
2019-06-26T10:59:12.063Z,8.10
2019-06-26T11:01:42.049Z,8.75
2019-06-26T11:04:11.775Z,8.48
2019-06-26T11:06:41.601Z,8.85
2019-06-26T11:09:11.670Z,13.03
2019-06-26T11:11:41.342Z,9.05
2019-06-26T11:14:11.132Z,8.78
2019-06-26T11:16:41.922Z,9.00
2019-06-26T11:19:11.842Z,9.05
2019-06-26T11:21:41.725Z,12.88
2019-06-26T11:24:11.567Z,12.65
2019-06-26T11:26:41.334Z,9.90
2019-06-26T11:29:11.073Z,15.15
2019-06-26T11:31:40.985Z,10.13
2019-06-26T11:34:11.910Z,9.18
2019-06-26T11:36:41.721Z,11.88
2019-06-26T11:39:11.628Z,12.88
2019-06-26T11:41:41.847Z,9.80
2019-06-26T11:44:11.786Z,14.10
2019-06-26T11:46:41.726Z,10.43
2019-06-26T11:49:11.654Z,12.58
2019-06-26T11:51:41.519Z,9.98
2019-06-26T11:54:11.234Z,9.80
2019-06-26T11:56:41.073Z,13.58
2019-06-26T11:59:10.885Z,11.00
2019-06-26T12:01:40.692Z,13.32
2019-06-26T12:04:10.591Z,15.03
2019-06-26T12:06:40.303Z,13.93
2019-06-26T12:09:10.429Z,17.57
2019-06-26T12:11:40.137Z,11.53
2019-06-26T12:14:10.115Z,14.40
2019-06-26T12:16:40.101Z,14.23
2019-06-26T12:19:10.122Z,12.18
2019-06-26T12:21:40.081Z,11.12
2019-06-26T12:24:09.760Z,14.30
2019-06-26T12:26:39.591Z,15.10
2019-06-26T12:29:09.529Z,13.48
2019-06-26T12:31:39.499Z,13.40
2019-06-26T12:34:09.358Z,11.28
2019-06-26T12:36:39.413Z,12.65
2019-06-26T12:39:09.438Z,15.58
2019-06-26T12:41:39.265Z,14.18
2019-06-26T12:44:09.229Z,14.35
2019-06-26T12:46:39.105Z,17.05
2019-06-26T12:49:09.032Z,12.15
2019-06-26T12:51:39.124Z,14.45
2019-06-26T12:54:08.949Z,12.60
2019-06-26T12:56:38.802Z,14.13
2019-06-26T12:59:08.660Z,12.33
2019-06-26T13:01:38.473Z,10.20
2019-06-26T13:04:08.521Z,13.88
2019-06-26T13:06:38.350Z,17.75
2019-06-26T13:09:08.764Z,17.15
2019-06-26T13:11:38.579Z,10.60
2019-06-26T13:14:08.407Z,10.35
2019-06-26T13:16:38.219Z,14.25
2019-06-26T13:19:08.126Z,9.70
2019-06-26T13:21:37.919Z,15.40
2019-06-26T13:24:07.897Z,10.82
2019-06-26T13:26:37.654Z,12.25
2019-06-26T13:29:09.801Z,16.23
2019-06-26T13:31:38.755Z,12.07
2019-06-26T13:34:09.729Z,13.65
2019-06-26T13:36:39.564Z,11.78
2019-06-26T13:39:10.633Z,14.55
2019-06-26T13:41:40.417Z,16.52
2019-06-26T13:44:10.228Z,18.70
2019-06-26T13:46:40.141Z,12.98
2019-06-26T13:49:09.781Z,17.40
2019-06-26T13:51:39.671Z,10.45
2019-06-26T13:54:09.655Z,12.00
2019-06-26T13:56:39.505Z,12.23
2019-06-26T13:59:09.328Z,13.95
2019-06-26T14:01:39.301Z,13.22
2019-06-26T14:04:09.050Z,10.58
2019-06-26T14:06:38.673Z,12.75
2019-06-26T14:09:08.895Z,10.60
2019-06-26T14:11:38.665Z,13.60
2019-06-26T14:14:08.580Z,13.22
2019-06-26T14:16:38.557Z,12.90
2019-06-26T14:19:08.368Z,10.78
2019-06-26T14:21:38.465Z,13.88
2019-06-26T14:24:08.516Z,12.75
2019-06-26T14:26:38.434Z,11.43
2019-06-26T14:29:20.527Z,14.90
2019-06-26T14:31:39.773Z,10.05
2019-06-26T14:34:09.614Z,11.33
2019-06-26T14:36:39.671Z,15.43
2019-06-26T14:39:09.313Z,11.38
2019-06-26T14:41:39.482Z,10.28
2019-06-26T14:44:09.273Z,11.12
2019-06-26T14:46:39.015Z,14.73
2019-06-26T14:49:08.876Z,15.40
2019-06-26T14:51:46.871Z,13.45
2019-06-26T14:54:10.528Z,18.85
2019-06-26T14:56:41.549Z,12.78
2019-06-26T14:59:11.311Z,13.50
2019-06-26T15:01:41.199Z,12.47
2019-06-26T15:04:11.026Z,16.02
2019-06-26T15:06:40.757Z,10.18
2019-06-26T15:09:10.881Z,12.82
2019-06-26T15:11:40.782Z,12.23
2019-06-26T15:14:10.505Z,9.65
2019-06-26T15:16:40.279Z,11.83
2019-06-26T15:19:10.054Z,15.30
2019-06-26T15:21:40.003Z,10.32
2019-06-26T15:24:09.872Z,11.08
2019-06-26T15:26:39.793Z,10.60
2019-06-26T15:29:10.955Z,11.22
2019-06-26T15:31:40.654Z,16.40
2019-06-26T15:34:10.586Z,11.03
2019-06-26T15:36:40.310Z,9.48
2019-06-26T15:39:11.670Z,10.55
2019-06-26T15:41:41.535Z,11.28
2019-06-26T15:44:11.186Z,22.00
2019-06-26T15:46:41.030Z,20.70
2019-06-26T15:49:10.902Z,62.33
2019-06-26T15:51:40.812Z,13.98
2019-06-26T15:54:10.831Z,19.12
2019-06-26T15:56:40.731Z,11.68
2019-06-26T15:59:10.434Z,12.88
2019-06-26T16:01:41.434Z,10.03
2019-06-26T16:04:11.219Z,10.10
2019-06-26T16:06:41.039Z,12.70
2019-06-26T16:09:10.843Z,12.70
2019-06-26T16:11:40.797Z,10.00
2019-06-26T16:14:10.721Z,9.40
2019-06-26T16:16:42.207Z,9.45
2019-06-26T16:19:14.717Z,10.88
2019-06-26T16:21:44.543Z,8.53
2019-06-26T16:24:14.226Z,8.78
2019-06-26T16:26:44.054Z,13.22
2019-06-26T16:29:14.105Z,9.03
2019-06-26T16:31:43.892Z,8.90
2019-06-26T16:34:13.721Z,10.45
2019-06-26T16:36:43.393Z,8.55
2019-06-26T16:39:13.149Z,9.25
2019-06-26T16:41:43.019Z,8.10
2019-06-26T16:44:12.725Z,7.67
2019-06-26T16:46:42.506Z,7.90
2019-06-26T16:49:12.284Z,11.17
2019-06-26T16:51:41.965Z,8.70
2019-06-26T16:54:11.651Z,9.20
2019-06-26T16:56:41.413Z,11.60
2019-06-26T16:59:11.325Z,9.23
2019-06-26T17:01:41.256Z,9.65
2019-06-26T17:04:11.045Z,7.75
2019-06-26T17:06:40.739Z,9.20
2019-06-26T17:09:10.905Z,8.85
2019-06-26T17:11:40.694Z,10.38
2019-06-26T17:14:16.221Z,7.97
2019-06-26T17:16:45.998Z,9.33
2019-06-26T17:19:15.804Z,10.17
2019-06-26T17:21:45.677Z,10.20
2019-06-26T17:24:15.423Z,8.60
2019-06-26T17:26:45.097Z,9.33
2019-06-26T17:29:16.098Z,11.97
2019-06-26T17:31:45.816Z,9.58
2019-06-26T17:34:15.691Z,9.30
2019-06-26T17:36:45.508Z,10.28
2019-06-26T17:39:15.701Z,12.17
2019-06-26T17:41:45.643Z,10.27
2019-06-26T17:44:15.512Z,11.33
2019-06-26T17:46:45.357Z,11.10
2019-06-26T17:49:15.325Z,13.73
2019-06-26T17:51:45.094Z,11.67
2019-06-26T17:54:14.807Z,12.27
2019-06-26T17:56:44.783Z,13.87
2019-06-26T17:59:14.673Z,11.73
2019-06-26T18:01:44.570Z,14.07
2019-06-26T18:04:15.539Z,13.93
2019-06-26T18:06:45.406Z,14.83
2019-06-26T18:09:15.343Z,13.07
2019-06-26T18:11:45.417Z,14.63
2019-06-26T18:14:15.165Z,13.93
2019-06-26T18:16:44.996Z,14.60
2019-06-26T18:19:14.950Z,16.20
2019-06-26T18:21:44.609Z,14.23
2019-06-26T18:24:14.313Z,13.63
2019-06-26T18:26:44.216Z,14.73
2019-06-26T18:29:13.842Z,12.57
2019-06-26T18:31:43.673Z,13.10
2019-06-26T18:34:13.591Z,13.10
2019-06-26T18:36:43.338Z,13.10
2019-06-26T18:39:13.098Z,14.03
2019-06-26T18:41:42.812Z,15.60
2019-06-26T18:44:12.691Z,11.10
2019-06-26T18:46:42.566Z,15.03
2019-06-26T18:49:12.484Z,13.83
2019-06-26T18:51:42.418Z,12.50
2019-06-26T18:54:13.565Z,13.53
2019-06-26T18:56:43.325Z,12.40
2019-06-26T18:59:13.075Z,16.87
2019-06-26T19:01:44.122Z,14.20
2019-06-26T19:04:14.068Z,17.13
2019-06-26T19:06:43.815Z,16.30
2019-06-26T19:09:13.636Z,16.97
2019-06-26T19:11:43.418Z,14.77
2019-06-26T19:14:13.391Z,16.70
2019-06-26T19:16:43.205Z,14.03
2019-06-26T19:19:13.263Z,16.33
2019-06-26T19:21:43.015Z,15.40
2019-06-26T19:24:12.933Z,14.10
2019-06-26T19:26:42.928Z,13.80
2019-06-26T19:29:12.763Z,13.93
2019-06-26T19:31:42.597Z,14.33
2019-06-26T19:34:12.548Z,16.07
2019-06-26T19:36:50.240Z,16.23
2019-06-26T19:39:13.662Z,14.00
2019-06-26T19:41:44.831Z,15.93
2019-06-26T19:44:14.626Z,14.47
2019-06-26T19:46:44.553Z,16.67
2019-06-26T19:49:14.522Z,17.33
2019-06-26T19:51:44.272Z,17.03
2019-06-26T19:54:26.515Z,16.00
2019-06-26T19:56:45.815Z,17.17
2019-06-26T19:59:15.560Z,16.57
2019-06-26T20:01:45.406Z,16.43
2019-06-26T20:05:32.003Z,17.57
2019-06-26T20:12:03.860Z,20.17
2019-06-26T20:15:25.501Z,18.93
2019-06-26T20:21:34.474Z,18.43
2019-06-26T20:25:07.253Z,18.13
2019-06-26T20:27:57.248Z,20.10
2019-06-26T20:34:44.174Z,16.97
2019-06-26T20:37:52.620Z,17.47
2019-06-26T20:41:25.496Z,17.50
2019-06-26T20:44:24.456Z,19.70
2019-06-26T20:47:36.297Z,19.83
2019-06-26T20:50:55.869Z,18.37
2019-06-26T20:53:47.867Z,16.67
2019-06-26T20:57:12.537Z,16.10
2019-06-26T21:07:38.472Z,18.57
2019-06-26T21:10:42.655Z,15.10
2019-06-26T21:14:00.720Z,18.00
2019-06-26T21:16:51.037Z,14.20
2019-06-26T21:25:52.390Z,13.70
2019-06-26T21:29:04.315Z,16.47
2019-06-26T21:31:47.534Z,15.90
2019-06-26T21:34:23.864Z,16.63
2019-06-26T21:37:00.171Z,14.20
2019-06-26T21:39:50.943Z,14.37
2019-06-26T21:43:01.403Z,12.80
2019-06-26T21:46:08.976Z,12.93
2019-06-26T21:49:06.631Z,11.83
2019-06-26T21:51:39.668Z,11.87
2019-06-26T21:54:09.568Z,11.13
2019-06-26T21:56:39.454Z,12.17
2019-06-26T21:59:09.320Z,14.43
2019-06-26T22:01:39.119Z,12.60
2019-06-26T22:04:10.036Z,12.10
2019-06-26T22:06:40.477Z,11.53
2019-06-26T22:09:10.782Z,13.40
2019-06-26T22:11:40.640Z,11.83
2019-06-26T22:14:10.616Z,13.33
2019-06-26T22:16:39.023Z,12.03
2019-06-26T22:19:08.824Z,15.80
2019-06-26T22:21:38.706Z,15.17
2019-06-26T22:24:09.833Z,15.73
2019-06-26T22:26:39.731Z,11.77
2019-06-26T22:29:09.522Z,12.73
2019-06-26T22:31:39.232Z,15.47
2019-06-26T22:34:08.968Z,13.37
2019-06-26T22:36:38.889Z,12.50
2019-06-26T22:39:09.084Z,14.07
2019-06-26T22:41:39.030Z,11.63
2019-06-26T22:44:08.814Z,16.13
2019-06-26T22:46:38.780Z,13.73
2019-06-26T22:49:08.661Z,13.07
2019-06-26T22:51:38.375Z,12.17
2019-06-26T22:54:08.218Z,13.23
2019-06-26T22:56:38.121Z,12.00
2019-06-26T22:59:08.041Z,11.70
2019-06-26T23:01:37.878Z,14.17
2019-06-26T23:04:07.750Z,13.90
2019-06-26T23:06:37.706Z,11.67
2019-06-26T23:09:09.026Z,12.63
2019-06-26T23:11:38.958Z,11.23
2019-06-26T23:14:08.864Z,12.50
2019-06-26T23:16:38.991Z,11.83
2019-06-26T23:19:08.790Z,11.40
2019-06-26T23:21:38.614Z,9.77
2019-06-26T23:24:08.679Z,10.20
2019-06-26T23:26:38.450Z,10.03
2019-06-26T23:29:08.471Z,16.30
2019-06-26T23:31:38.322Z,9.53
2019-06-26T23:34:08.214Z,10.97
2019-06-26T23:36:38.119Z,12.77
2019-06-26T23:39:08.128Z,12.97
2019-06-26T23:41:38.056Z,12.30
2019-06-26T23:44:07.864Z,12.23
2019-06-26T23:46:37.827Z,10.93
2019-06-26T23:49:07.476Z,9.90
2019-06-26T23:51:37.385Z,10.13
2019-06-26T23:54:07.363Z,12.53
2019-06-26T23:56:40.672Z,9.10
2019-06-26T23:59:08.818Z,10.87
